sensor_id;sensor_type;location;lat;lon;timestamp;P1;durP1;ratioP1;P2;durP2;ratioP2
9485;SDS011;4781;48.776;9.200;2022-08-03T00:01:16;4.85;;;2.40;;
9485;SDS011;4781;48.776;9.200;2022-08-03T00:03:45;4.47;;;2.50;;
9485;SDS011;4781;48.776;9.200;2022-08-03T00:06:14;4.30;;;2.30;;
9485;SDS011;4781;48.776;9.200;2022-08-03T00:08:42;5.83;;;2.58;;
9485;SDS011;4781;48.776;9.200;2022-08-03T00:11:10;4.40;;;2.80;;
9485;SDS011;4781;48.776;9.200;2022-08-03T00:13:39;4.03;;;2.25;;
9485;SDS011;4781;48.776;9.200;2022-08-03T00:16:07;4.15;;;2.42;;
9485;SDS011;4781;48.776;9.200;2022-08-03T00:18:38;4.65;;;2.30;;
9485;SDS011;4781;48.776;9.200;2022-08-03T00:21:06;4.47;;;2.15;;
9485;SDS011;4781;48.776;9.200;2022-08-03T00:23:35;5.00;;;2.50;;
9485;SDS011;4781;48.776;9.200;2022-08-03T00:26:04;5.72;;;2.20;;
9485;SDS011;4781;48.776;9.200;2022-08-03T00:28:32;4.10;;;1.92;;
9485;SDS011;4781;48.776;9.200;2022-08-03T00:31:01;3.95;;;1.90;;
9485;SDS011;4781;48.776;9.200;2022-08-03T00:33:29;4.72;;;2.33;;
9485;SDS011;4781;48.776;9.200;2022-08-03T00:35:59;6.30;;;2.42;;
9485;SDS011;4781;48.776;9.200;2022-08-03T00:38:27;4.17;;;1.92;;
9485;SDS011;4781;48.776;9.200;2022-08-03T00:40:55;3.70;;;1.92;;
9485;SDS011;4781;48.776;9.200;2022-08-03T00:43:24;3.60;;;1.70;;
9485;SDS011;4781;48.776;9.200;2022-08-03T00:45:53;5.03;;;1.72;;
9485;SDS011;4781;48.776;9.200;2022-08-03T00:48:21;3.17;;;1.90;;
9485;SDS011;4781;48.776;9.200;2022-08-03T00:50:50;3.12;;;1.82;;
9485;SDS011;4781;48.776;9.200;2022-08-03T00:53:20;3.98;;;1.90;;
9485;SDS011;4781;48.776;9.200;2022-08-03T00:55:49;3.20;;;2.00;;
9485;SDS011;4781;48.776;9.200;2022-08-03T00:58:17;3.00;;;1.90;;
9485;SDS011;4781;48.776;9.200;2022-08-03T01:00:46;5.20;;;2.30;;
9485;SDS011;4781;48.776;9.200;2022-08-03T01:03:14;3.47;;;1.90;;
9485;SDS011;4781;48.776;9.200;2022-08-03T01:06:28;2.80;;;1.72;;
9485;SDS011;4781;48.776;9.200;2022-08-03T01:08:35;4.80;;;1.87;;
9485;SDS011;4781;48.776;9.200;2022-08-03T01:17:18;3.98;;;1.90;;
9485;SDS011;4781;48.776;9.200;2022-08-03T01:19:55;3.35;;;1.82;;
9485;SDS011;4781;48.776;9.200;2022-08-03T01:22:39;3.77;;;2.00;;
9485;SDS011;4781;48.776;9.200;2022-08-03T01:32:04;5.47;;;2.10;;
9485;SDS011;4781;48.776;9.200;2022-08-03T01:34:40;3.95;;;1.92;;
9485;SDS011;4781;48.776;9.200;2022-08-03T01:37:15;7.40;;;2.05;;
9485;SDS011;4781;48.776;9.200;2022-08-03T01:39:46;5.20;;;2.00;;
9485;SDS011;4781;48.776;9.200;2022-08-03T01:42:17;4.42;;;1.87;;
9485;SDS011;4781;48.776;9.200;2022-08-03T01:44:47;3.98;;;2.15;;
9485;SDS011;4781;48.776;9.200;2022-08-03T01:47:19;4.05;;;2.02;;
9485;SDS011;4781;48.776;9.200;2022-08-03T01:49:48;5.17;;;1.72;;
9485;SDS011;4781;48.776;9.200;2022-08-03T01:52:17;6.33;;;2.25;;
9485;SDS011;4781;48.776;9.200;2022-08-03T01:54:48;4.60;;;2.10;;
9485;SDS011;4781;48.776;9.200;2022-08-03T01:57:18;6.42;;;2.40;;
9485;SDS011;4781;48.776;9.200;2022-08-03T01:59:48;3.52;;;1.72;;
9485;SDS011;4781;48.776;9.200;2022-08-03T02:02:19;4.65;;;1.92;;
9485;SDS011;4781;48.776;9.200;2022-08-03T02:04:49;3.35;;;1.95;;
9485;SDS011;4781;48.776;9.200;2022-08-03T02:07:20;4.40;;;2.27;;
9485;SDS011;4781;48.776;9.200;2022-08-03T02:09:49;3.22;;;1.90;;
9485;SDS011;4781;48.776;9.200;2022-08-03T02:12:19;3.15;;;2.00;;
9485;SDS011;4781;48.776;9.200;2022-08-03T02:14:51;3.40;;;2.12;;
9485;SDS011;4781;48.776;9.200;2022-08-03T02:17:22;3.42;;;2.08;;
9485;SDS011;4781;48.776;9.200;2022-08-03T02:19:53;4.28;;;2.30;;
9485;SDS011;4781;48.776;9.200;2022-08-03T02:22:25;6.70;;;2.72;;
9485;SDS011;4781;48.776;9.200;2022-08-03T02:24:55;4.33;;;2.30;;
9485;SDS011;4781;48.776;9.200;2022-08-03T02:27:24;5.30;;;2.58;;
9485;SDS011;4781;48.776;9.200;2022-08-03T02:29:59;5.62;;;2.10;;
9485;SDS011;4781;48.776;9.200;2022-08-03T02:32:35;5.03;;;2.22;;
9485;SDS011;4781;48.776;9.200;2022-08-03T02:35:10;5.25;;;2.33;;
9485;SDS011;4781;48.776;9.200;2022-08-03T02:37:44;3.85;;;2.20;;
9485;SDS011;4781;48.776;9.200;2022-08-03T02:40:14;3.77;;;2.00;;
9485;SDS011;4781;48.776;9.200;2022-08-03T02:42:47;9.68;;;2.47;;
9485;SDS011;4781;48.776;9.200;2022-08-03T02:45:19;5.75;;;2.27;;
9485;SDS011;4781;48.776;9.200;2022-08-03T02:47:48;4.30;;;2.35;;
9485;SDS011;4781;48.776;9.200;2022-08-03T02:50:21;4.67;;;2.30;;
9485;SDS011;4781;48.776;9.200;2022-08-03T02:52:52;2.87;;;1.85;;
9485;SDS011;4781;48.776;9.200;2022-08-03T02:55:21;4.00;;;2.20;;
9485;SDS011;4781;48.776;9.200;2022-08-03T02:57:52;3.27;;;1.85;;
9485;SDS011;4781;48.776;9.200;2022-08-03T03:00:22;6.33;;;2.43;;
9485;SDS011;4781;48.776;9.200;2022-08-03T03:02:52;3.92;;;2.20;;
9485;SDS011;4781;48.776;9.200;2022-08-03T03:05:23;4.15;;;2.30;;
9485;SDS011;4781;48.776;9.200;2022-08-03T03:07:52;4.17;;;2.35;;
9485;SDS011;4781;48.776;9.200;2022-08-03T03:10:22;4.72;;;1.80;;
9485;SDS011;4781;48.776;9.200;2022-08-03T03:12:55;4.40;;;2.45;;
9485;SDS011;4781;48.776;9.200;2022-08-03T03:15:25;5.30;;;2.20;;
9485;SDS011;4781;48.776;9.200;2022-08-03T03:17:56;4.37;;;2.15;;
9485;SDS011;4781;48.776;9.200;2022-08-03T03:20:27;3.75;;;1.98;;
9485;SDS011;4781;48.776;9.200;2022-08-03T03:22:58;3.40;;;1.98;;
9485;SDS011;4781;48.776;9.200;2022-08-03T03:25:29;4.75;;;2.50;;
9485;SDS011;4781;48.776;9.200;2022-08-03T03:27:59;4.58;;;2.50;;
9485;SDS011;4781;48.776;9.200;2022-08-03T03:30:28;4.78;;;2.33;;
9485;SDS011;4781;48.776;9.200;2022-08-03T03:32:57;4.30;;;2.45;;
9485;SDS011;4781;48.776;9.200;2022-08-03T03:35:26;5.08;;;2.42;;
9485;SDS011;4781;48.776;9.200;2022-08-03T03:37:55;3.50;;;2.40;;
9485;SDS011;4781;48.776;9.200;2022-08-03T03:40:24;4.05;;;2.20;;
9485;SDS011;4781;48.776;9.200;2022-08-03T03:42:53;4.53;;;2.37;;
9485;SDS011;4781;48.776;9.200;2022-08-03T03:45:22;5.62;;;2.62;;
9485;SDS011;4781;48.776;9.200;2022-08-03T03:47:51;4.00;;;2.30;;
9485;SDS011;4781;48.776;9.200;2022-08-03T03:50:19;7.05;;;2.87;;
9485;SDS011;4781;48.776;9.200;2022-08-03T03:52:50;5.40;;;3.25;;
9485;SDS011;4781;48.776;9.200;2022-08-03T03:55:18;5.58;;;2.80;;
9485;SDS011;4781;48.776;9.200;2022-08-03T03:57:47;4.80;;;3.08;;
9485;SDS011;4781;48.776;9.200;2022-08-03T04:00:15;5.47;;;2.40;;
9485;SDS011;4781;48.776;9.200;2022-08-03T04:02:45;5.37;;;3.42;;
9485;SDS011;4781;48.776;9.200;2022-08-03T04:05:14;6.00;;;2.58;;
9485;SDS011;4781;48.776;9.200;2022-08-03T04:08:08;4.33;;;2.80;;
9485;SDS011;4781;48.776;9.200;2022-08-03T04:11:42;4.85;;;2.50;;
9485;SDS011;4781;48.776;9.200;2022-08-03T04:13:34;4.15;;;2.40;;
9485;SDS011;4781;48.776;9.200;2022-08-03T04:16:20;5.12;;;2.67;;
9485;SDS011;4781;48.776;9.200;2022-08-03T04:18:56;5.85;;;3.00;;
9485;SDS011;4781;48.776;9.200;2022-08-03T04:21:25;5.15;;;3.17;;
9485;SDS011;4781;48.776;9.200;2022-08-03T04:23:57;3.92;;;2.50;;
9485;SDS011;4781;48.776;9.200;2022-08-03T04:26:28;3.95;;;2.40;;
9485;SDS011;4781;48.776;9.200;2022-08-03T04:28:59;3.67;;;2.30;;
9485;SDS011;4781;48.776;9.200;2022-08-03T04:31:29;4.80;;;2.60;;
9485;SDS011;4781;48.776;9.200;2022-08-03T04:33:58;4.12;;;2.47;;
9485;SDS011;4781;48.776;9.200;2022-08-03T04:36:28;5.85;;;2.27;;
9485;SDS011;4781;48.776;9.200;2022-08-03T04:39:00;5.92;;;2.90;;
9485;SDS011;4781;48.776;9.200;2022-08-03T04:41:32;4.40;;;2.37;;
9485;SDS011;4781;48.776;9.200;2022-08-03T04:44:02;4.35;;;2.40;;
9485;SDS011;4781;48.776;9.200;2022-08-03T04:46:34;4.25;;;2.60;;
9485;SDS011;4781;48.776;9.200;2022-08-03T04:49:05;4.87;;;2.60;;
9485;SDS011;4781;48.776;9.200;2022-08-03T04:51:34;3.50;;;2.30;;
9485;SDS011;4781;48.776;9.200;2022-08-03T04:54:05;4.60;;;2.70;;
9485;SDS011;4781;48.776;9.200;2022-08-03T04:56:35;6.47;;;2.95;;
9485;SDS011;4781;48.776;9.200;2022-08-03T04:59:08;4.25;;;2.42;;
9485;SDS011;4781;48.776;9.200;2022-08-03T05:01:42;4.62;;;2.58;;
9485;SDS011;4781;48.776;9.200;2022-08-03T05:04:07;4.90;;;2.77;;
9485;SDS011;4781;48.776;9.200;2022-08-03T05:06:36;5.28;;;2.98;;
9485;SDS011;4781;48.776;9.200;2022-08-03T05:09:04;4.33;;;2.60;;
9485;SDS011;4781;48.776;9.200;2022-08-03T05:11:33;5.37;;;2.52;;
9485;SDS011;4781;48.776;9.200;2022-08-03T05:14:01;4.58;;;2.72;;
9485;SDS011;4781;48.776;9.200;2022-08-03T05:16:29;5.60;;;2.98;;
9485;SDS011;4781;48.776;9.200;2022-08-03T05:18:58;4.60;;;2.90;;
9485;SDS011;4781;48.776;9.200;2022-08-03T05:21:26;5.70;;;3.00;;
9485;SDS011;4781;48.776;9.200;2022-08-03T05:23:55;9.55;;;2.80;;
9485;SDS011;4781;48.776;9.200;2022-08-03T05:26:23;5.50;;;2.83;;
9485;SDS011;4781;48.776;9.200;2022-08-03T05:28:52;5.92;;;2.98;;
9485;SDS011;4781;48.776;9.200;2022-08-03T05:31:20;6.70;;;3.25;;
9485;SDS011;4781;48.776;9.200;2022-08-03T05:33:48;5.75;;;3.20;;
9485;SDS011;4781;48.776;9.200;2022-08-03T05:36:17;7.45;;;2.85;;
9485;SDS011;4781;48.776;9.200;2022-08-03T05:38:45;4.28;;;2.67;;
9485;SDS011;4781;48.776;9.200;2022-08-03T05:41:14;4.55;;;2.55;;
9485;SDS011;4781;48.776;9.200;2022-08-03T05:43:42;8.15;;;2.75;;
9485;SDS011;4781;48.776;9.200;2022-08-03T05:46:11;5.90;;;3.20;;
9485;SDS011;4781;48.776;9.200;2022-08-03T05:48:40;4.33;;;2.70;;
9485;SDS011;4781;48.776;9.200;2022-08-03T05:51:09;4.92;;;2.77;;
9485;SDS011;4781;48.776;9.200;2022-08-03T05:53:38;5.10;;;2.87;;
9485;SDS011;4781;48.776;9.200;2022-08-03T05:56:08;5.75;;;2.98;;
9485;SDS011;4781;48.776;9.200;2022-08-03T05:58:37;10.18;;;3.47;;
9485;SDS011;4781;48.776;9.200;2022-08-03T06:01:06;7.05;;;3.02;;
9485;SDS011;4781;48.776;9.200;2022-08-03T06:03:34;6.37;;;2.60;;
9485;SDS011;4781;48.776;9.200;2022-08-03T06:06:02;4.87;;;2.95;;
9485;SDS011;4781;48.776;9.200;2022-08-03T06:08:31;10.55;;;3.33;;
9485;SDS011;4781;48.776;9.200;2022-08-03T06:11:00;5.40;;;2.70;;
9485;SDS011;4781;48.776;9.200;2022-08-03T06:13:29;6.00;;;3.35;;
9485;SDS011;4781;48.776;9.200;2022-08-03T06:15:58;5.17;;;2.87;;
9485;SDS011;4781;48.776;9.200;2022-08-03T06:18:26;4.50;;;2.92;;
9485;SDS011;4781;48.776;9.200;2022-08-03T06:20:55;6.10;;;2.90;;
9485;SDS011;4781;48.776;9.200;2022-08-03T06:23:23;4.85;;;2.83;;
9485;SDS011;4781;48.776;9.200;2022-08-03T06:25:51;5.15;;;2.95;;
9485;SDS011;4781;48.776;9.200;2022-08-03T06:28:20;5.28;;;2.62;;
9485;SDS011;4781;48.776;9.200;2022-08-03T06:30:48;6.03;;;2.92;;
9485;SDS011;4781;48.776;9.200;2022-08-03T06:33:17;3.87;;;2.40;;
9485;SDS011;4781;48.776;9.200;2022-08-03T06:35:45;7.80;;;2.80;;
9485;SDS011;4781;48.776;9.200;2022-08-03T06:38:14;5.28;;;2.80;;
9485;SDS011;4781;48.776;9.200;2022-08-03T06:40:42;4.12;;;2.47;;
9485;SDS011;4781;48.776;9.200;2022-08-03T06:43:10;5.30;;;2.67;;
9485;SDS011;4781;48.776;9.200;2022-08-03T06:45:40;8.73;;;2.67;;
9485;SDS011;4781;48.776;9.200;2022-08-03T06:48:09;4.90;;;2.70;;
9485;SDS011;4781;48.776;9.200;2022-08-03T06:50:39;4.37;;;2.67;;
9485;SDS011;4781;48.776;9.200;2022-08-03T06:53:09;6.42;;;2.55;;
9485;SDS011;4781;48.776;9.200;2022-08-03T06:55:38;7.65;;;2.35;;
9485;SDS011;4781;48.776;9.200;2022-08-03T06:58:06;4.35;;;2.35;;
9485;SDS011;4781;48.776;9.200;2022-08-03T07:00:34;5.65;;;2.50;;
9485;SDS011;4781;48.776;9.200;2022-08-03T07:03:03;4.55;;;2.10;;
9485;SDS011;4781;48.776;9.200;2022-08-03T07:05:31;4.62;;;2.08;;
9485;SDS011;4781;48.776;9.200;2022-08-03T07:08:00;8.83;;;2.60;;
9485;SDS011;4781;48.776;9.200;2022-08-03T07:10:28;4.65;;;2.80;;
9485;SDS011;4781;48.776;9.200;2022-08-03T07:12:57;7.90;;;2.25;;
9485;SDS011;4781;48.776;9.200;2022-08-03T07:15:25;5.53;;;2.70;;
9485;SDS011;4781;48.776;9.200;2022-08-03T07:17:54;3.92;;;2.35;;
9485;SDS011;4781;48.776;9.200;2022-08-03T07:20:22;5.37;;;2.60;;
9485;SDS011;4781;48.776;9.200;2022-08-03T07:22:51;7.35;;;2.40;;
9485;SDS011;4781;48.776;9.200;2022-08-03T07:25:19;4.83;;;2.50;;
9485;SDS011;4781;48.776;9.200;2022-08-03T07:27:48;5.97;;;2.45;;
9485;SDS011;4781;48.776;9.200;2022-08-03T07:30:16;6.47;;;2.40;;
9485;SDS011;4781;48.776;9.200;2022-08-03T07:32:44;4.42;;;2.00;;
9485;SDS011;4781;48.776;9.200;2022-08-03T07:35:13;5.28;;;2.50;;
9485;SDS011;4781;48.776;9.200;2022-08-03T07:37:41;5.78;;;2.52;;
9485;SDS011;4781;48.776;9.200;2022-08-03T07:40:10;4.67;;;2.00;;
9485;SDS011;4781;48.776;9.200;2022-08-03T07:42:38;3.17;;;1.82;;
9485;SDS011;4781;48.776;9.200;2022-08-03T07:45:07;3.25;;;1.57;;
9485;SDS011;4781;48.776;9.200;2022-08-03T07:47:36;2.58;;;1.42;;
9485;SDS011;4781;48.776;9.200;2022-08-03T07:50:05;3.33;;;1.52;;
9485;SDS011;4781;48.776;9.200;2022-08-03T07:52:34;4.45;;;1.50;;
9485;SDS011;4781;48.776;9.200;2022-08-03T07:55:15;3.52;;;1.30;;
9485;SDS011;4781;48.776;9.200;2022-08-03T07:57:46;2.52;;;1.37;;
9485;SDS011;4781;48.776;9.200;2022-08-03T08:00:25;2.05;;;1.30;;
9485;SDS011;4781;48.776;9.200;2022-08-03T08:02:54;2.00;;;1.17;;
9485;SDS011;4781;48.776;9.200;2022-08-03T08:05:22;2.60;;;1.20;;
9485;SDS011;4781;48.776;9.200;2022-08-03T08:07:51;2.90;;;1.65;;
9485;SDS011;4781;48.776;9.200;2022-08-03T08:10:20;2.42;;;1.10;;
9485;SDS011;4781;48.776;9.200;2022-08-03T08:12:48;8.30;;;1.47;;
9485;SDS011;4781;48.776;9.200;2022-08-03T08:15:17;2.62;;;1.30;;
9485;SDS011;4781;48.776;9.200;2022-08-03T08:17:46;2.45;;;1.10;;
9485;SDS011;4781;48.776;9.200;2022-08-03T08:20:26;3.70;;;1.20;;
9485;SDS011;4781;48.776;9.200;2022-08-03T08:22:56;2.72;;;1.20;;
9485;SDS011;4781;48.776;9.200;2022-08-03T08:25:27;2.27;;;1.10;;
9485;SDS011;4781;48.776;9.200;2022-08-03T08:27:57;3.35;;;1.10;;
9485;SDS011;4781;48.776;9.200;2022-08-03T08:30:28;2.37;;;1.30;;
9485;SDS011;4781;48.776;9.200;2022-08-03T08:32:59;2.00;;;1.00;;
9485;SDS011;4781;48.776;9.200;2022-08-03T08:35:27;1.82;;;1.10;;
9485;SDS011;4781;48.776;9.200;2022-08-03T08:37:55;3.55;;;1.17;;
9485;SDS011;4781;48.776;9.200;2022-08-03T08:40:27;2.02;;;1.10;;
9485;SDS011;4781;48.776;9.200;2022-08-03T08:42:55;3.05;;;1.17;;
9485;SDS011;4781;48.776;9.200;2022-08-03T08:45:24;2.02;;;1.00;;
9485;SDS011;4781;48.776;9.200;2022-08-03T08:47:54;2.37;;;1.10;;
9485;SDS011;4781;48.776;9.200;2022-08-03T08:50:23;3.47;;;1.02;;
9485;SDS011;4781;48.776;9.200;2022-08-03T08:52:52;3.17;;;1.20;;
9485;SDS011;4781;48.776;9.200;2022-08-03T08:55:21;2.55;;;1.15;;
9485;SDS011;4781;48.776;9.200;2022-08-03T08:57:58;2.08;;;1.15;;
9485;SDS011;4781;48.776;9.200;2022-08-03T09:00:30;2.80;;;1.30;;
9485;SDS011;4781;48.776;9.200;2022-08-03T09:02:58;4.30;;;1.45;;
9485;SDS011;4781;48.776;9.200;2022-08-03T09:05:28;2.10;;;1.10;;
9485;SDS011;4781;48.776;9.200;2022-08-03T09:07:59;2.62;;;1.00;;
9485;SDS011;4781;48.776;9.200;2022-08-03T09:10:27;3.47;;;1.10;;
9485;SDS011;4781;48.776;9.200;2022-08-03T09:12:56;2.40;;;1.10;;
9485;SDS011;4781;48.776;9.200;2022-08-03T09:17:58;4.10;;;1.42;;
9485;SDS011;4781;48.776;9.200;2022-08-03T09:20:29;1.57;;;0.85;;
9485;SDS011;4781;48.776;9.200;2022-08-03T09:23:02;1.93;;;0.90;;
9485;SDS011;4781;48.776;9.200;2022-08-03T09:25:36;2.42;;;1.10;;
9485;SDS011;4781;48.776;9.200;2022-08-03T09:28:16;1.90;;;0.90;;
9485;SDS011;4781;48.776;9.200;2022-08-03T09:30:56;1.82;;;0.95;;
9485;SDS011;4781;48.776;9.200;2022-08-03T09:33:27;2.55;;;1.20;;
9485;SDS011;4781;48.776;9.200;2022-08-03T09:35:55;2.50;;;1.22;;
9485;SDS011;4781;48.776;9.200;2022-08-03T09:38:24;2.40;;;1.10;;
9485;SDS011;4781;48.776;9.200;2022-08-03T09:40:53;2.15;;;1.10;;
9485;SDS011;4781;48.776;9.200;2022-08-03T09:43:23;1.67;;;0.90;;
9485;SDS011;4781;48.776;9.200;2022-08-03T09:46:01;1.70;;;1.05;;
9485;SDS011;4781;48.776;9.200;2022-08-03T09:48:32;3.20;;;1.32;;
9485;SDS011;4781;48.776;9.200;2022-08-03T09:51:02;2.35;;;1.37;;
9485;SDS011;4781;48.776;9.200;2022-08-03T09:53:40;3.10;;;1.10;;
9485;SDS011;4781;48.776;9.200;2022-08-03T09:56:13;2.55;;;1.10;;
9485;SDS011;4781;48.776;9.200;2022-08-03T09:58:45;2.27;;;1.00;;
9485;SDS011;4781;48.776;9.200;2022-08-03T10:01:15;2.02;;;1.00;;
9485;SDS011;4781;48.776;9.200;2022-08-03T10:03:43;2.40;;;1.00;;
9485;SDS011;4781;48.776;9.200;2022-08-03T10:06:21;2.22;;;1.00;;
9485;SDS011;4781;48.776;9.200;2022-08-03T10:09:07;1.82;;;0.80;;
9485;SDS011;4781;48.776;9.200;2022-08-03T10:11:42;1.67;;;0.95;;
9485;SDS011;4781;48.776;9.200;2022-08-03T10:14:12;2.50;;;1.20;;
9485;SDS011;4781;48.776;9.200;2022-08-03T10:16:42;3.25;;;1.40;;
9485;SDS011;4781;48.776;9.200;2022-08-03T10:19:11;4.05;;;1.17;;
9485;SDS011;4781;48.776;9.200;2022-08-03T10:21:45;2.85;;;1.30;;
9485;SDS011;4781;48.776;9.200;2022-08-03T10:24:16;2.50;;;1.10;;
9485;SDS011;4781;48.776;9.200;2022-08-03T10:26:49;5.10;;;1.00;;
9485;SDS011;4781;48.776;9.200;2022-08-03T10:29:21;2.05;;;1.05;;
9485;SDS011;4781;48.776;9.200;2022-08-03T10:31:53;1.85;;;0.98;;
9485;SDS011;4781;48.776;9.200;2022-08-03T10:34:25;1.40;;;0.82;;
9485;SDS011;4781;48.776;9.200;2022-08-03T10:36:58;1.75;;;1.07;;
9485;SDS011;4781;48.776;9.200;2022-08-03T10:39:28;2.52;;;1.30;;
9485;SDS011;4781;48.776;9.200;2022-08-03T10:41:57;1.60;;;1.00;;
9485;SDS011;4781;48.776;9.200;2022-08-03T10:44:28;1.98;;;1.02;;
9485;SDS011;4781;48.776;9.200;2022-08-03T10:47:02;2.83;;;1.20;;
9485;SDS011;4781;48.776;9.200;2022-08-03T10:49:31;2.40;;;1.12;;
9485;SDS011;4781;48.776;9.200;2022-08-03T10:52:00;2.25;;;1.02;;
9485;SDS011;4781;48.776;9.200;2022-08-03T10:54:37;1.87;;;1.10;;
9485;SDS011;4781;48.776;9.200;2022-08-03T11:00:14;1.90;;;1.00;;
9485;SDS011;4781;48.776;9.200;2022-08-03T11:03:06;2.67;;;1.10;;
9485;SDS011;4781;48.776;9.200;2022-08-03T11:05:40;1.55;;;0.90;;
9485;SDS011;4781;48.776;9.200;2022-08-03T11:10:56;2.98;;;1.20;;
9485;SDS011;4781;48.776;9.200;2022-08-03T11:13:30;4.12;;;1.35;;
9485;SDS011;4781;48.776;9.200;2022-08-03T11:16:01;1.35;;;0.85;;
9485;SDS011;4781;48.776;9.200;2022-08-03T11:18:31;2.30;;;1.07;;
9485;SDS011;4781;48.776;9.200;2022-08-03T11:21:00;2.52;;;1.02;;
9485;SDS011;4781;48.776;9.200;2022-08-03T11:26:17;1.22;;;0.80;;
9485;SDS011;4781;48.776;9.200;2022-08-03T11:28:47;1.87;;;0.80;;
9485;SDS011;4781;48.776;9.200;2022-08-03T11:34:04;2.33;;;1.20;;
9485;SDS011;4781;48.776;9.200;2022-08-03T11:39:49;1.98;;;0.90;;
9485;SDS011;4781;48.776;9.200;2022-08-03T11:44:57;2.37;;;1.10;;
9485;SDS011;4781;48.776;9.200;2022-08-03T11:47:27;1.75;;;0.90;;
9485;SDS011;4781;48.776;9.200;2022-08-03T11:49:56;2.08;;;1.15;;
9485;SDS011;4781;48.776;9.200;2022-08-03T11:52:27;2.25;;;1.20;;
9485;SDS011;4781;48.776;9.200;2022-08-03T11:55:07;2.42;;;1.10;;
9485;SDS011;4781;48.776;9.200;2022-08-03T11:57:38;2.40;;;1.20;;
9485;SDS011;4781;48.776;9.200;2022-08-03T12:00:27;1.90;;;0.90;;
9485;SDS011;4781;48.776;9.200;2022-08-03T12:03:03;2.72;;;1.15;;
9485;SDS011;4781;48.776;9.200;2022-08-03T12:05:41;1.95;;;1.20;;
9485;SDS011;4781;48.776;9.200;2022-08-03T12:10:59;2.08;;;1.00;;
9485;SDS011;4781;48.776;9.200;2022-08-03T12:13:42;2.25;;;1.10;;
9485;SDS011;4781;48.776;9.200;2022-08-03T12:16:17;2.40;;;1.20;;
9485;SDS011;4781;48.776;9.200;2022-08-03T12:18:54;2.30;;;1.20;;
9485;SDS011;4781;48.776;9.200;2022-08-03T12:21:28;2.50;;;1.20;;
9485;SDS011;4781;48.776;9.200;2022-08-03T12:23:58;3.00;;;1.27;;
9485;SDS011;4781;48.776;9.200;2022-08-03T12:26:29;1.92;;;1.10;;
9485;SDS011;4781;48.776;9.200;2022-08-03T12:29:19;2.45;;;1.10;;
9485;SDS011;4781;48.776;9.200;2022-08-03T12:31:50;2.62;;;1.40;;
9485;SDS011;4781;48.776;9.200;2022-08-03T12:34:19;1.87;;;1.20;;
9485;SDS011;4781;48.776;9.200;2022-08-03T12:36:51;1.57;;;0.95;;
9485;SDS011;4781;48.776;9.200;2022-08-03T12:39:24;2.08;;;1.10;;
9485;SDS011;4781;48.776;9.200;2022-08-03T12:41:55;2.10;;;1.10;;
9485;SDS011;4781;48.776;9.200;2022-08-03T12:44:34;4.67;;;1.10;;
9485;SDS011;4781;48.776;9.200;2022-08-03T12:47:02;2.75;;;1.30;;
9485;SDS011;4781;48.776;9.200;2022-08-03T12:49:53;2.25;;;1.15;;
9485;SDS011;4781;48.776;9.200;2022-08-03T12:52:20;2.45;;;1.10;;
9485;SDS011;4781;48.776;9.200;2022-08-03T12:54:58;2.80;;;1.12;;
9485;SDS011;4781;48.776;9.200;2022-08-03T12:57:45;1.82;;;1.00;;
9485;SDS011;4781;48.776;9.200;2022-08-03T13:00:14;2.53;;;1.10;;
9485;SDS011;4781;48.776;9.200;2022-08-03T13:02:44;3.70;;;1.10;;
9485;SDS011;4781;48.776;9.200;2022-08-03T13:05:13;1.65;;;0.90;;
9485;SDS011;4781;48.776;9.200;2022-08-03T13:07:45;3.08;;;1.12;;
9485;SDS011;4781;48.776;9.200;2022-08-03T13:10:25;1.87;;;1.22;;
9485;SDS011;4781;48.776;9.200;2022-08-03T13:15:27;3.02;;;1.25;;
9485;SDS011;4781;48.776;9.200;2022-08-03T13:17:56;1.92;;;1.10;;
9485;SDS011;4781;48.776;9.200;2022-08-03T13:20:24;2.52;;;0.90;;
9485;SDS011;4781;48.776;9.200;2022-08-03T13:22:53;2.33;;;1.25;;
9485;SDS011;4781;48.776;9.200;2022-08-03T13:25:22;3.17;;;1.00;;
9485;SDS011;4781;48.776;9.200;2022-08-03T13:27:50;2.00;;;1.02;;
9485;SDS011;4781;48.776;9.200;2022-08-03T13:30:19;2.22;;;1.07;;
9485;SDS011;4781;48.776;9.200;2022-08-03T13:32:47;2.42;;;1.00;;
9485;SDS011;4781;48.776;9.200;2022-08-03T13:35:15;2.33;;;1.10;;
9485;SDS011;4781;48.776;9.200;2022-08-03T13:37:44;1.85;;;1.17;;
9485;SDS011;4781;48.776;9.200;2022-08-03T13:40:12;2.65;;;1.10;;
9485;SDS011;4781;48.776;9.200;2022-08-03T13:42:41;3.20;;;1.15;;
9485;SDS011;4781;48.776;9.200;2022-08-03T13:45:09;2.25;;;1.12;;
9485;SDS011;4781;48.776;9.200;2022-08-03T13:47:37;2.08;;;1.07;;
9485;SDS011;4781;48.776;9.200;2022-08-03T13:50:06;2.35;;;1.30;;
9485;SDS011;4781;48.776;9.200;2022-08-03T13:52:35;2.92;;;1.27;;
9485;SDS011;4781;48.776;9.200;2022-08-03T13:55:04;3.37;;;1.30;;
9485;SDS011;4781;48.776;9.200;2022-08-03T13:57:34;1.70;;;1.00;;
9485;SDS011;4781;48.776;9.200;2022-08-03T14:00:04;2.42;;;1.20;;
9485;SDS011;4781;48.776;9.200;2022-08-03T14:02:33;2.40;;;1.20;;
9485;SDS011;4781;48.776;9.200;2022-08-03T14:05:02;2.05;;;1.12;;
9485;SDS011;4781;48.776;9.200;2022-08-03T14:07:32;2.42;;;1.17;;
9485;SDS011;4781;48.776;9.200;2022-08-03T14:10:00;2.02;;;1.07;;
9485;SDS011;4781;48.776;9.200;2022-08-03T14:12:29;1.87;;;1.10;;
9485;SDS011;4781;48.776;9.200;2022-08-03T14:14:57;1.40;;;0.95;;
9485;SDS011;4781;48.776;9.200;2022-08-03T14:17:25;1.98;;;1.00;;
9485;SDS011;4781;48.776;9.200;2022-08-03T14:19:54;4.92;;;1.22;;
9485;SDS011;4781;48.776;9.200;2022-08-03T14:22:22;2.10;;;1.10;;
9485;SDS011;4781;48.776;9.200;2022-08-03T14:24:51;1.82;;;1.10;;
9485;SDS011;4781;48.776;9.200;2022-08-03T14:27:19;2.22;;;1.05;;
9485;SDS011;4781;48.776;9.200;2022-08-03T14:29:47;2.62;;;1.30;;
9485;SDS011;4781;48.776;9.200;2022-08-03T14:32:16;2.25;;;1.22;;
9485;SDS011;4781;48.776;9.200;2022-08-03T14:34:44;2.45;;;1.20;;
9485;SDS011;4781;48.776;9.200;2022-08-03T14:37:13;2.55;;;1.35;;
9485;SDS011;4781;48.776;9.200;2022-08-03T14:39:41;2.08;;;1.20;;
9485;SDS011;4781;48.776;9.200;2022-08-03T14:42:11;2.20;;;1.10;;
9485;SDS011;4781;48.776;9.200;2022-08-03T14:44:40;2.37;;;1.20;;
9485;SDS011;4781;48.776;9.200;2022-08-03T14:47:09;3.45;;;1.27;;
9485;SDS011;4781;48.776;9.200;2022-08-03T14:49:37;4.05;;;1.57;;
9485;SDS011;4781;48.776;9.200;2022-08-03T14:52:06;2.25;;;1.30;;
9485;SDS011;4781;48.776;9.200;2022-08-03T14:54:34;1.92;;;1.10;;
9485;SDS011;4781;48.776;9.200;2022-08-03T14:57:03;2.00;;;1.20;;
9485;SDS011;4781;48.776;9.200;2022-08-03T14:59:31;1.75;;;1.02;;
9485;SDS011;4781;48.776;9.200;2022-08-03T15:01:59;2.95;;;1.17;;
9485;SDS011;4781;48.776;9.200;2022-08-03T15:04:28;2.50;;;1.17;;
9485;SDS011;4781;48.776;9.200;2022-08-03T15:06:56;4.15;;;1.30;;
9485;SDS011;4781;48.776;9.200;2022-08-03T15:09:25;1.80;;;1.07;;
9485;SDS011;4781;48.776;9.200;2022-08-03T15:11:54;2.10;;;1.12;;
9485;SDS011;4781;48.776;9.200;2022-08-03T15:14:22;1.98;;;0.90;;
9485;SDS011;4781;48.776;9.200;2022-08-03T15:16:50;2.62;;;1.30;;
9485;SDS011;4781;48.776;9.200;2022-08-03T15:19:19;2.35;;;1.00;;
9485;SDS011;4781;48.776;9.200;2022-08-03T15:21:47;1.87;;;1.00;;
9485;SDS011;4781;48.776;9.200;2022-08-03T15:24:16;2.10;;;1.25;;
9485;SDS011;4781;48.776;9.200;2022-08-03T15:26:44;2.58;;;1.20;;
9485;SDS011;4781;48.776;9.200;2022-08-03T15:29:12;2.25;;;1.20;;
9485;SDS011;4781;48.776;9.200;2022-08-03T15:31:41;1.55;;;0.90;;
9485;SDS011;4781;48.776;9.200;2022-08-03T15:34:09;2.47;;;1.17;;
9485;SDS011;4781;48.776;9.200;2022-08-03T15:36:38;1.75;;;0.90;;
9485;SDS011;4781;48.776;9.200;2022-08-03T15:39:06;3.87;;;1.10;;
9485;SDS011;4781;48.776;9.200;2022-08-03T15:41:35;3.12;;;1.20;;
9485;SDS011;4781;48.776;9.200;2022-08-03T15:44:03;1.87;;;1.07;;
9485;SDS011;4781;48.776;9.200;2022-08-03T15:46:32;3.62;;;1.30;;
9485;SDS011;4781;48.776;9.200;2022-08-03T15:49:00;3.58;;;0.90;;
9485;SDS011;4781;48.776;9.200;2022-08-03T15:51:28;1.95;;;1.20;;
9485;SDS011;4781;48.776;9.200;2022-08-03T15:53:57;1.95;;;0.93;;
9485;SDS011;4781;48.776;9.200;2022-08-03T15:56:25;2.10;;;1.20;;
9485;SDS011;4781;48.776;9.200;2022-08-03T15:58:54;2.00;;;1.00;;
9485;SDS011;4781;48.776;9.200;2022-08-03T16:01:22;2.75;;;1.20;;
9485;SDS011;4781;48.776;9.200;2022-08-03T16:03:52;2.10;;;1.22;;
9485;SDS011;4781;48.776;9.200;2022-08-03T16:06:20;2.37;;;1.15;;
9485;SDS011;4781;48.776;9.200;2022-08-03T16:08:49;4.33;;;1.10;;
9485;SDS011;4781;48.776;9.200;2022-08-03T16:11:17;3.12;;;1.22;;
9485;SDS011;4781;48.776;9.200;2022-08-03T16:13:45;2.08;;;1.05;;